PWSweather.com
Personal Weather Stations
Station Observations
IPODRAVI2
Croatia, Trnovec BartoloveckiHR

CroatiaTrnovec BartoloveckiHR

Lat: 46.2947, Lon: 16.3989

Elevation: 535

Station Type: Davis Vantage Pro2 plus

http://www.pljusak.com/trnovec1/wx.html

High Low Average
Temperature 77.6°F25.3°F 49.5°F9.7°F 63.5°F17.5°F
Dew Point 58.0°F14.4°F 46.4°F8.0°F 51.8°F11.0°F
Winds 8.1 mph SW13.0 mph SW Calm Calm 2.3 mph 3.7 mph
Wind Gusts 16.1 mph25.9 mph -- 4.2 mph6.8 mph
Humidity 91% 45% 68%
Pressure 30.32 in1026.80 in 30.08 in1018.60 in -
Precipitation 0.00 in0.00 in - -
Hour Temp Dew Point Humidity Winds Wind Gusts Pressure Precip Precip Rate Daily Precip Total
12:00 AM 54.5°F12.5°C 48.4°F9.1°C 80% Calm Calm -- 30.32 in1026.8 mb - 0.00 in0.0 mm 0.00 in0.0 mm
12:10 AM 54.1°F12.3°C 48.4°F9.1°C 81% Calm Calm -- 30.32 in1026.8 mb - 0.00 in0.0 mm 0.00 in0.0 mm
12:15 AM 54.0°F12.2°C 48.3°F9.1°C 81% Calm Calm -- 30.32 in1026.8 mb - 0.00 in0.0 mm 0.00 in0.0 mm
12:20 AM 53.8°F12.1°C 48.4°F9.1°C 82% Calm Calm -- 30.32 in1026.8 mb - 0.00 in0.0 mm 0.00 in0.0 mm
12:25 AM 53.7°F12.1°C 48.3°F9.1°C 82% Calm Calm -- 30.32 in1026.8 mb - 0.00 in0.0 mm 0.00 in0.0 mm
12:30 AM 53.5°F11.9°C 48.2°F9.0°C 82% Calm Calm -- 30.32 in1026.8 mb - 0.00 in0.0 mm 0.00 in0.0 mm
12:35 AM 53.3°F11.8°C 48.3°F9.1°C 83% Calm Calm -- 30.32 in1026.8 mb - 0.00 in0.0 mm 0.00 in0.0 mm
12:40 AM 53.1°F11.7°C 48.1°F8.9°C 83% Calm Calm -- 30.32 in1026.8 mb - 0.00 in0.0 mm 0.00 in0.0 mm
12:45 AM 52.9°F11.6°C 47.9°F8.8°C 83% Calm Calm -- 30.32 in1026.8 mb - 0.00 in0.0 mm 0.00 in0.0 mm
12:50 AM 52.7°F11.5°C 48.0°F8.9°C 84% Calm Calm -- 30.32 in1026.8 mb - 0.00 in0.0 mm 0.00 in0.0 mm
12:55 AM 52.5°F11.4°C 47.8°F8.8°C 84% Calm Calm -- 30.32 in1026.8 mb - 0.00 in0.0 mm 0.00 in0.0 mm
01:00 AM 52.4°F11.3°C 47.7°F8.7°C 84% Calm Calm -- 30.32 in1026.8 mb - 0.00 in0.0 mm 0.00 in0.0 mm
01:10 AM 52.1°F11.2°C 47.7°F8.7°C 85% Calm Calm -- 30.32 in1026.8 mb - 0.00 in0.0 mm 0.00 in0.0 mm
01:15 AM 51.9°F11.1°C 47.5°F8.6°C 85% Calm Calm -- 30.32 in1026.8 mb - 0.00 in0.0 mm 0.00 in0.0 mm
01:20 AM 51.8°F11.0°C 47.4°F8.6°C 85% Calm Calm -- 30.32 in1026.8 mb - 0.00 in0.0 mm 0.00 in0.0 mm
01:25 AM 51.6°F10.9°C 47.2°F8.4°C 85% Calm Calm -- 30.32 in1026.8 mb - 0.00 in0.0 mm 0.00 in0.0 mm
01:30 AM 51.5°F10.8°C 47.5°F8.6°C 86% Calm Calm -- 30.32 in1026.8 mb - 0.00 in0.0 mm 0.00 in0.0 mm
01:35 AM 51.5°F10.8°C 47.5°F8.6°C 86% Calm Calm -- 30.32 in1026.8 mb - 0.00 in0.0 mm 0.00 in0.0 mm
01:40 AM 51.5°F10.8°C 47.1°F8.4°C 85% Calm Calm -- 30.32 in1026.8 mb - 0.00 in0.0 mm 0.00 in0.0 mm
01:45 AM 51.5°F10.8°C 47.1°F8.4°C 85% Calm Calm 2.3 mph3.7 kmh 30.31 in1026.4 mb - 0.00 in0.0 mm 0.00 in0.0 mm
01:50 AM 51.5°F10.8°C 47.1°F8.4°C 85% Calm Calm 2.3 mph3.7 kmh 30.31 in1026.4 mb - 0.00 in0.0 mm 0.00 in0.0 mm
01:55 AM 51.4°F10.8°C 47.0°F8.3°C 85% Calm Calm 2.3 mph3.7 kmh 30.31 in1026.4 mb - 0.00 in0.0 mm 0.00 in0.0 mm
02:00 AM 51.4°F10.8°C 47.0°F8.3°C 85% Calm Calm -- 30.31 in1026.4 mb - 0.00 in0.0 mm 0.00 in0.0 mm
02:10 AM 51.5°F10.8°C 47.1°F8.4°C 85% 1.2 mph W1.9 kmh W 3.5 mph5.6 kmh 30.31 in1026.4 mb - 0.00 in0.0 mm 0.00 in0.0 mm
02:15 AM 51.5°F10.8°C 47.2°F8.4°C 85% Calm Calm -- 30.31 in1026.4 mb - 0.00 in0.0 mm 0.00 in0.0 mm
02:20 AM 51.5°F10.8°C 47.1°F8.4°C 85% Calm Calm -- 30.31 in1026.4 mb - 0.00 in0.0 mm 0.00 in0.0 mm
02:25 AM 51.5°F10.8°C 47.1°F8.4°C 85% Calm Calm -- 30.31 in1026.4 mb - 0.00 in0.0 mm 0.00 in0.0 mm
02:30 AM 51.4°F10.8°C 47.0°F8.3°C 85% Calm Calm -- 30.31 in1026.4 mb - 0.00 in0.0 mm 0.00 in0.0 mm
02:35 AM 51.3°F10.7°C 47.0°F8.3°C 85% Calm Calm -- 30.31 in1026.4 mb - 0.00 in0.0 mm 0.00 in0.0 mm
02:40 AM 51.3°F10.7°C 46.9°F8.3°C 85% Calm Calm -- 30.31 in1026.4 mb - 0.00 in0.0 mm 0.00 in0.0 mm
02:45 AM 51.1°F10.6°C 46.8°F8.2°C 85% Calm Calm -- 30.31 in1026.4 mb - 0.00 in0.0 mm 0.00 in0.0 mm
02:50 AM 51.0°F10.6°C 47.0°F8.3°C 86% Calm Calm -- 30.31 in1026.4 mb - 0.00 in0.0 mm 0.00 in0.0 mm
02:55 AM 50.9°F10.5°C 46.9°F8.3°C 86% Calm Calm -- 30.31 in1026.4 mb - 0.00 in0.0 mm 0.00 in0.0 mm
03:00 AM 50.7°F10.4°C 46.7°F8.2°C 86% Calm Calm -- 30.31 in1026.4 mb - 0.00 in0.0 mm 0.00 in0.0 mm
03:10 AM 50.4°F10.2°C 46.7°F8.2°C 87% Calm Calm 1.2 mph1.9 kmh 30.31 in1026.4 mb - 0.00 in0.0 mm 0.00 in0.0 mm
03:15 AM 50.3°F10.2°C 46.6°F8.1°C 87% Calm Calm -- 30.31 in1026.4 mb - 0.00 in0.0 mm 0.00 in0.0 mm
03:20 AM 50.3°F10.2°C 46.6°F8.1°C 87% Calm Calm -- 30.31 in1026.4 mb - 0.00 in0.0 mm 0.00 in0.0 mm
03:25 AM 50.2°F10.1°C 46.5°F8.1°C 87% Calm Calm -- 30.31 in1026.4 mb - 0.00 in0.0 mm 0.00 in0.0 mm
03:30 AM 50.1°F10.1°C 46.7°F8.2°C 88% Calm Calm -- 30.31 in1026.4 mb - 0.00 in0.0 mm 0.00 in0.0 mm
03:35 AM 50.1°F10.1°C 47.0°F8.3°C 89% Calm Calm -- 30.31 in1026.4 mb - 0.00 in0.0 mm 0.00 in0.0 mm
03:40 AM 50.0°F10.0°C 46.9°F8.3°C 89% Calm Calm -- 30.31 in1026.4 mb - 0.00 in0.0 mm 0.00 in0.0 mm
03:45 AM 50.0°F10.0°C 46.9°F8.3°C 89% Calm Calm -- 30.31 in1026.4 mb - 0.00 in0.0 mm 0.00 in0.0 mm
03:50 AM 50.0°F10.0°C 46.9°F8.3°C 89% Calm Calm -- 30.31 in1026.4 mb - 0.00 in0.0 mm 0.00 in0.0 mm
03:55 AM 49.9°F9.9°C 46.8°F8.2°C 89% Calm Calm -- 30.31 in1026.4 mb - 0.00 in0.0 mm 0.00 in0.0 mm
04:00 AM 49.9°F9.9°C 46.8°F8.2°C 89% Calm Calm -- 30.31 in1026.4 mb - 0.00 in0.0 mm 0.00 in0.0 mm
04:10 AM 49.7°F9.8°C 46.6°F8.1°C 89% Calm Calm -- 30.30 in1026.1 mb - 0.00 in0.0 mm 0.00 in0.0 mm
04:15 AM 49.6°F9.8°C 46.5°F8.1°C 89% Calm Calm -- 30.30 in1026.1 mb - 0.00 in0.0 mm 0.00 in0.0 mm
04:20 AM 49.5°F9.7°C 46.4°F8.0°C 89% Calm Calm -- 30.30 in1026.1 mb - 0.00 in0.0 mm 0.00 in0.0 mm
04:25 AM 49.5°F9.7°C 46.4°F8.0°C 89% Calm Calm -- 30.30 in1026.1 mb - 0.00 in0.0 mm 0.00 in0.0 mm
04:30 AM 49.5°F9.7°C 46.4°F8.0°C 89% Calm Calm -- 30.30 in1026.1 mb - 0.00 in0.0 mm 0.00 in0.0 mm
04:35 AM 49.5°F9.7°C 46.4°F8.0°C 89% Calm Calm -- 30.30 in1026.1 mb - 0.00 in0.0 mm 0.00 in0.0 mm
04:40 AM 49.5°F9.7°C 46.7°F8.2°C 90% Calm Calm -- 30.30 in1026.1 mb - 0.00 in0.0 mm 0.00 in0.0 mm
04:45 AM 49.5°F9.7°C 46.7°F8.2°C 90% Calm Calm -- 30.30 in1026.1 mb - 0.00 in0.0 mm 0.00 in0.0 mm
04:50 AM 49.5°F9.7°C 46.7°F8.2°C 90% Calm Calm -- 30.30 in1026.1 mb - 0.00 in0.0 mm 0.00 in0.0 mm
04:55 AM 49.5°F9.7°C 46.7°F8.2°C 90% Calm Calm -- 30.30 in1026.1 mb - 0.00 in0.0 mm 0.00 in0.0 mm
05:00 AM 49.6°F9.8°C 46.8°F8.2°C 90% Calm Calm -- 30.30 in1026.1 mb - 0.00 in0.0 mm 0.00 in0.0 mm
05:10 AM 49.7°F9.8°C 46.9°F8.3°C 90% Calm Calm -- 30.30 in1026.1 mb - 0.00 in0.0 mm 0.00 in0.0 mm
05:15 AM 49.7°F9.8°C 46.9°F8.3°C 90% Calm Calm -- 30.30 in1026.1 mb - 0.00 in0.0 mm 0.00 in0.0 mm
05:20 AM 49.6°F9.8°C 46.8°F8.2°C 90% Calm Calm -- 30.29 in1025.7 mb - 0.00 in0.0 mm 0.00 in0.0 mm
05:25 AM 49.6°F9.8°C 46.8°F8.2°C 90% Calm Calm -- 30.29 in1025.7 mb - 0.00 in0.0 mm 0.00 in0.0 mm
05:30 AM 49.5°F9.7°C 46.7°F8.2°C 90% Calm Calm -- 30.29 in1025.7 mb - 0.00 in0.0 mm 0.00 in0.0 mm
05:35 AM 49.5°F9.7°C 46.7°F8.2°C 90% Calm Calm -- 30.29 in1025.7 mb - 0.00 in0.0 mm 0.00 in0.0 mm
05:40 AM 49.5°F9.7°C 46.7°F8.2°C 90% Calm Calm -- 30.30 in1026.1 mb - 0.00 in0.0 mm 0.00 in0.0 mm
05:45 AM 49.5°F9.7°C 47.0°F8.3°C 91% Calm Calm -- 30.30 in1026.1 mb - 0.00 in0.0 mm 0.00 in0.0 mm
05:50 AM 49.6°F9.8°C 47.1°F8.4°C 91% Calm Calm -- 30.29 in1025.7 mb - 0.00 in0.0 mm 0.00 in0.0 mm
05:55 AM 49.7°F9.8°C 47.2°F8.4°C 91% Calm Calm -- 30.29 in1025.7 mb - 0.00 in0.0 mm 0.00 in0.0 mm
06:00 AM 49.7°F9.8°C 47.2°F8.4°C 91% Calm Calm -- 30.29 in1025.7 mb - 0.00 in0.0 mm 0.00 in0.0 mm
06:10 AM 49.8°F9.9°C 47.3°F8.5°C 91% Calm Calm -- 30.30 in1026.1 mb - 0.00 in0.0 mm 0.00 in0.0 mm
06:15 AM 49.8°F9.9°C 47.3°F8.5°C 91% Calm Calm -- 30.30 in1026.1 mb - 0.00 in0.0 mm 0.00 in0.0 mm
06:20 AM 49.9°F9.9°C 47.3°F8.5°C 91% Calm Calm -- 30.30 in1026.1 mb - 0.00 in0.0 mm 0.00 in0.0 mm
06:25 AM 50.0°F10.0°C 47.5°F8.6°C 91% Calm Calm -- 30.30 in1026.1 mb - 0.00 in0.0 mm 0.00 in0.0 mm
06:30 AM 50.2°F10.1°C 47.6°F8.7°C 91% Calm Calm -- 30.30 in1026.1 mb - 0.00 in0.0 mm 0.00 in0.0 mm
06:35 AM 50.3°F10.2°C 47.5°F8.6°C 90% Calm Calm -- 30.30 in1026.1 mb - 0.00 in0.0 mm 0.00 in0.0 mm
06:40 AM 51.1°F10.6°C 48.2°F9.0°C 90% Calm Calm -- 30.30 in1026.1 mb - 0.00 in0.0 mm 0.00 in0.0 mm
06:45 AM 51.6°F10.9°C 48.5°F9.2°C 89% Calm Calm -- 30.30 in1026.1 mb - 0.00 in0.0 mm 0.00 in0.0 mm
06:50 AM 51.9°F11.1°C 48.8°F9.3°C 89% Calm Calm -- 30.30 in1026.1 mb - 0.00 in0.0 mm 0.00 in0.0 mm
06:55 AM 52.5°F11.4°C 49.9°F9.9°C 91% Calm Calm -- 30.30 in1026.1 mb - 0.00 in0.0 mm 0.00 in0.0 mm
07:00 AM 52.9°F11.6°C 49.4°F9.7°C 88% Calm Calm -- 30.30 in1026.1 mb - 0.00 in0.0 mm 0.00 in0.0 mm
07:10 AM 53.3°F11.8°C 49.5°F9.7°C 87% Calm Calm -- 30.30 in1026.1 mb - 0.00 in0.0 mm 0.00 in0.0 mm
07:15 AM 53.3°F11.8°C 49.5°F9.7°C 87% Calm Calm -- 30.30 in1026.1 mb - 0.00 in0.0 mm 0.00 in0.0 mm
07:20 AM 53.2°F11.8°C 49.4°F9.7°C 87% Calm Calm -- 30.30 in1026.1 mb - 0.00 in0.0 mm 0.00 in0.0 mm
07:25 AM 53.0°F11.7°C 49.5°F9.7°C 88% Calm Calm -- 30.30 in1026.1 mb - 0.00 in0.0 mm 0.00 in0.0 mm
07:30 AM 53.0°F11.7°C 49.5°F9.7°C 88% Calm Calm -- 30.30 in1026.1 mb - 0.00 in0.0 mm 0.00 in0.0 mm
07:35 AM 53.1°F11.7°C 49.6°F9.8°C 88% Calm Calm -- 30.30 in1026.1 mb - 0.00 in0.0 mm 0.00 in0.0 mm
07:40 AM 53.3°F11.8°C 50.1°F10.1°C 89% Calm Calm -- 30.30 in1026.1 mb - 0.00 in0.0 mm 0.00 in0.0 mm
07:45 AM 53.6°F12.0°C 50.4°F10.2°C 89% Calm Calm -- 30.30 in1026.1 mb - 0.00 in0.0 mm 0.00 in0.0 mm
07:50 AM 53.9°F12.2°C 50.5°F10.3°C 88% Calm Calm -- 30.30 in1026.1 mb - 0.00 in0.0 mm 0.00 in0.0 mm
07:55 AM 54.4°F12.4°C 50.9°F10.5°C 88% Calm Calm -- 30.30 in1026.1 mb - 0.00 in0.0 mm 0.00 in0.0 mm
08:00 AM 55.0°F12.8°C 51.2°F10.7°C 87% Calm Calm -- 30.30 in1026.1 mb - 0.00 in0.0 mm 0.00 in0.0 mm
08:10 AM 56.4°F13.6°C 51.9°F11.1°C 85% Calm Calm -- 30.30 in1026.1 mb - 0.00 in0.0 mm 0.00 in0.0 mm
08:15 AM 57.2°F14.0°C 52.4°F11.3°C 84% Calm Calm -- 30.30 in1026.1 mb - 0.00 in0.0 mm 0.00 in0.0 mm
08:20 AM 58.0°F14.4°C 52.5°F11.4°C 82% 2.3 mph WSW3.7 kmh WSW 3.5 mph5.6 kmh 30.30 in1026.1 mb - 0.00 in0.0 mm 0.00 in0.0 mm
08:25 AM 58.7°F14.8°C 52.5°F11.4°C 80% 1.2 mph SW1.9 kmh SW 3.5 mph5.6 kmh 30.30 in1026.1 mb - 0.00 in0.0 mm 0.00 in0.0 mm
08:30 AM 59.2°F15.1°C 53.0°F11.7°C 80% Calm Calm -- 30.30 in1026.1 mb - 0.00 in0.0 mm 0.00 in0.0 mm
08:35 AM 59.5°F15.3°C 53.4°F11.9°C 80% 1.2 mph WSW1.9 kmh WSW 2.3 mph3.7 kmh 30.29 in1025.7 mb - 0.00 in0.0 mm 0.00 in0.0 mm
08:40 AM 60.0°F15.6°C 53.5°F11.9°C 79% 1.2 mph WSW1.9 kmh WSW 2.3 mph3.7 kmh 30.29 in1025.7 mb - 0.00 in0.0 mm 0.00 in0.0 mm
08:45 AM 60.4°F15.8°C 53.8°F12.1°C 79% Calm Calm 3.5 mph5.6 kmh 30.29 in1025.7 mb - 0.00 in0.0 mm 0.00 in0.0 mm
08:50 AM 60.9°F16.1°C 53.6°F12.0°C 77% Calm Calm 1.2 mph1.9 kmh 30.29 in1025.7 mb - 0.00 in0.0 mm 0.00 in0.0 mm
08:55 AM 61.4°F16.3°C 54.1°F12.3°C 77% Calm Calm -- 30.29 in1025.7 mb - 0.00 in0.0 mm 0.00 in0.0 mm
09:00 AM 61.9°F16.6°C 53.9°F12.2°C 75% 1.2 mph WNW1.9 kmh WNW 2.3 mph3.7 kmh 30.29 in1025.7 mb - 0.00 in0.0 mm 0.00 in0.0 mm
09:10 AM 63.4°F17.4°C 54.2°F12.3°C 72% Calm Calm -- 30.29 in1025.7 mb - 0.00 in0.0 mm 0.00 in0.0 mm
09:15 AM 64.4°F18.0°C 54.0°F12.2°C 69% Calm Calm -- 30.29 in1025.7 mb - 0.00 in0.0 mm 0.00 in0.0 mm
09:20 AM 64.9°F18.3°C 54.9°F12.7°C 70% Calm Calm -- 30.29 in1025.7 mb - 0.00 in0.0 mm 0.00 in0.0 mm
09:25 AM 65.3°F18.5°C 54.9°F12.7°C 69% Calm Calm 2.3 mph3.7 kmh 30.29 in1025.7 mb - 0.00 in0.0 mm 0.00 in0.0 mm
09:30 AM 65.8°F18.8°C 55.0°F12.8°C 68% Calm Calm 3.5 mph5.6 kmh 30.29 in1025.7 mb - 0.00 in0.0 mm 0.00 in0.0 mm
09:35 AM 66.2°F19.0°C 54.9°F12.7°C 67% Calm Calm 3.5 mph5.6 kmh 30.29 in1025.7 mb - 0.00 in0.0 mm 0.00 in0.0 mm
09:40 AM 66.8°F19.3°C 55.5°F13.1°C 67% Calm Calm 1.2 mph1.9 kmh 30.29 in1025.7 mb - 0.00 in0.0 mm 0.00 in0.0 mm
09:45 AM 67.6°F19.8°C 55.9°F13.3°C 66% Calm Calm 5.8 mph9.3 kmh 30.28 in1025.4 mb - 0.00 in0.0 mm 0.00 in0.0 mm
09:50 AM 68.1°F20.1°C 55.0°F12.8°C 63% 1.2 mph WSW1.9 kmh WSW 3.5 mph5.6 kmh 30.28 in1025.4 mb - 0.00 in0.0 mm 0.00 in0.0 mm
09:55 AM 68.5°F20.3°C 55.0°F12.8°C 62% 1.2 mph SE1.9 kmh SE 3.5 mph5.6 kmh 30.28 in1025.4 mb - 0.00 in0.0 mm 0.00 in0.0 mm
10:00 AM 68.4°F20.2°C 54.4°F12.4°C 61% 3.5 mph SSW5.6 kmh SSW 5.8 mph9.3 kmh 30.28 in1025.4 mb - 0.00 in0.0 mm 0.00 in0.0 mm
10:10 AM 69.6°F20.9°C 55.5°F13.1°C 61% 2.3 mph S3.7 kmh S 5.8 mph9.3 kmh 30.28 in1025.4 mb - 0.00 in0.0 mm 0.00 in0.0 mm
10:15 AM 69.6°F20.9°C 54.7°F12.6°C 59% 1.2 mph S1.9 kmh S 3.5 mph5.6 kmh 30.27 in1025.1 mb - 0.00 in0.0 mm 0.00 in0.0 mm
10:20 AM 69.6°F20.9°C 55.1°F12.8°C 60% 1.2 mph SSW1.9 kmh SSW 2.3 mph3.7 kmh 30.27 in1025.1 mb - 0.00 in0.0 mm 0.00 in0.0 mm
10:25 AM 70.1°F21.2°C 55.1°F12.8°C 59% 1.2 mph SW1.9 kmh SW 4.6 mph7.4 kmh 30.27 in1025.1 mb - 0.00 in0.0 mm 0.00 in0.0 mm
10:30 AM 70.2°F21.2°C 54.7°F12.6°C 58% Calm Calm 1.2 mph1.9 kmh 30.27 in1025.1 mb - 0.00 in0.0 mm 0.00 in0.0 mm
10:35 AM 70.7°F21.5°C 55.2°F12.9°C 58% Calm Calm 3.5 mph5.6 kmh 30.27 in1025.1 mb - 0.00 in0.0 mm 0.00 in0.0 mm
10:40 AM 71.0°F21.7°C 55.4°F13.0°C 58% Calm Calm 3.5 mph5.6 kmh 30.27 in1025.1 mb - 0.00 in0.0 mm 0.00 in0.0 mm
10:45 AM 71.1°F21.7°C 55.1°F12.8°C 57% 2.3 mph S3.7 kmh S 3.5 mph5.6 kmh 30.27 in1025.1 mb - 0.00 in0.0 mm 0.00 in0.0 mm
10:50 AM 71.6°F22.0°C 56.0°F13.3°C 58% 1.2 mph SW1.9 kmh SW 3.5 mph5.6 kmh 30.27 in1025.1 mb - 0.00 in0.0 mm 0.00 in0.0 mm
10:55 AM 71.4°F21.9°C 56.3°F13.5°C 59% 2.3 mph SSW3.7 kmh SSW 4.6 mph7.4 kmh 30.26 in1024.7 mb - 0.00 in0.0 mm 0.00 in0.0 mm
11:00 AM 71.8°F22.1°C 55.8°F13.2°C 57% Calm Calm -- 30.26 in1024.7 mb - 0.00 in0.0 mm 0.00 in0.0 mm
11:10 AM 72.6°F22.6°C 57.0°F13.9°C 58% 2.3 mph SW3.7 kmh SW 4.6 mph7.4 kmh 30.25 in1024.4 mb - 0.00 in0.0 mm 0.00 in0.0 mm
11:15 AM 73.3°F22.9°C 56.6°F13.7°C 56% 2.3 mph SW3.7 kmh SW 4.6 mph7.4 kmh 30.25 in1024.4 mb - 0.00 in0.0 mm 0.00 in0.0 mm
11:20 AM 73.2°F22.9°C 56.6°F13.7°C 56% 3.5 mph S5.6 kmh S 5.8 mph9.3 kmh 30.25 in1024.4 mb - 0.00 in0.0 mm 0.00 in0.0 mm
11:25 AM 73.5°F23.1°C 56.8°F13.8°C 56% 3.5 mph WSW5.6 kmh WSW 5.8 mph9.3 kmh 30.25 in1024.4 mb - 0.00 in0.0 mm 0.00 in0.0 mm
11:30 AM 74.0°F23.3°C 57.3°F14.1°C 56% 2.3 mph SSW3.7 kmh SSW 4.6 mph7.4 kmh 30.25 in1024.4 mb - 0.00 in0.0 mm 0.00 in0.0 mm
11:35 AM 74.3°F23.5°C 56.1°F13.4°C 53% 4.6 mph SSW7.4 kmh SSW 6.9 mph11.1 kmh 30.24 in1024.0 mb - 0.00 in0.0 mm 0.00 in0.0 mm
11:40 AM 74.4°F23.6°C 55.6°F13.1°C 52% 2.3 mph S3.7 kmh S 1.2 mph1.9 kmh 30.24 in1024.0 mb - 0.00 in0.0 mm 0.00 in0.0 mm
11:45 AM 74.5°F23.6°C 56.8°F13.8°C 54% 4.6 mph WSW7.4 kmh WSW 3.5 mph5.6 kmh 30.24 in1024.0 mb - 0.00 in0.0 mm 0.00 in0.0 mm
11:50 AM 75.6°F24.2°C 56.7°F13.7°C 52% 2.3 mph SSE3.7 kmh SSE 4.6 mph7.4 kmh 30.24 in1024.0 mb - 0.00 in0.0 mm 0.00 in0.0 mm
11:55 AM 75.9°F24.4°C 56.5°F13.6°C 51% 3.5 mph WSW5.6 kmh WSW 5.8 mph9.3 kmh 30.24 in1024.0 mb - 0.00 in0.0 mm 0.00 in0.0 mm
12:00 PM 75.5°F24.2°C 56.1°F13.4°C 51% 3.5 mph SSE5.6 kmh SSE 6.9 mph11.1 kmh 30.23 in1023.7 mb - 0.00 in0.0 mm 0.00 in0.0 mm
12:10 PM 75.7°F24.3°C 56.3°F13.5°C 51% 4.6 mph S7.4 kmh S 9.2 mph14.8 kmh 30.23 in1023.7 mb - 0.00 in0.0 mm 0.00 in0.0 mm
12:15 PM 75.9°F24.4°C 55.9°F13.3°C 50% 5.8 mph SW9.3 kmh SW 9.2 mph14.8 kmh 30.23 in1023.7 mb - 0.00 in0.0 mm 0.00 in0.0 mm
12:20 PM 76.4°F24.7°C 56.9°F13.8°C 51% 3.5 mph SSW5.6 kmh SSW 9.2 mph14.8 kmh 30.23 in1023.7 mb - 0.00 in0.0 mm 0.00 in0.0 mm
12:25 PM 76.5°F24.7°C 55.9°F13.3°C 49% 6.9 mph S11.1 kmh S 13.8 mph22.2 kmh 30.22 in1023.4 mb - 0.00 in0.0 mm 0.00 in0.0 mm
12:30 PM 76.5°F24.7°C 55.9°F13.3°C 49% 8.1 mph SW13.0 kmh SW 10.4 mph16.7 kmh 30.22 in1023.4 mb - 0.00 in0.0 mm 0.00 in0.0 mm
12:35 PM 76.8°F24.9°C 55.6°F13.1°C 48% 5.8 mph SSW9.3 kmh SSW 10.4 mph16.7 kmh 30.22 in1023.4 mb - 0.00 in0.0 mm 0.00 in0.0 mm
12:40 PM 76.6°F24.8°C 56.5°F13.6°C 50% 2.3 mph SW3.7 kmh SW 5.8 mph9.3 kmh 30.21 in1023.0 mb - 0.00 in0.0 mm 0.00 in0.0 mm
12:45 PM 76.8°F24.9°C 56.8°F13.8°C 50% 5.8 mph S9.3 kmh S 11.5 mph18.5 kmh 30.21 in1023.0 mb - 0.00 in0.0 mm 0.00 in0.0 mm
12:50 PM 76.5°F24.7°C 57.1°F13.9°C 51% 4.6 mph S7.4 kmh S 6.9 mph11.1 kmh 30.21 in1023.0 mb - 0.00 in0.0 mm 0.00 in0.0 mm
12:55 PM 76.4°F24.7°C 56.4°F13.6°C 50% 5.8 mph S9.3 kmh S 9.2 mph14.8 kmh 30.21 in1023.0 mb - 0.00 in0.0 mm 0.00 in0.0 mm
01:00 PM 76.6°F24.8°C 57.1°F13.9°C 51% 4.6 mph SW7.4 kmh SW 11.5 mph18.5 kmh 30.20 in1022.7 mb - 0.00 in0.0 mm 0.00 in0.0 mm
01:10 PM 77.2°F25.1°C 57.1°F13.9°C 50% 4.6 mph SSW7.4 kmh SSW 8.1 mph13.0 kmh 30.20 in1022.7 mb - 0.00 in0.0 mm 0.00 in0.0 mm
01:15 PM 77.6°F25.3°C 58.0°F14.4°C 51% 3.5 mph S5.6 kmh S 8.1 mph13.0 kmh 30.20 in1022.7 mb - 0.00 in0.0 mm 0.00 in0.0 mm
01:20 PM 77.3°F25.2°C 56.6°F13.7°C 49% 5.8 mph SW9.3 kmh SW 8.1 mph13.0 kmh 30.20 in1022.7 mb - 0.00 in0.0 mm 0.00 in0.0 mm
01:25 PM 77.1°F25.1°C 55.9°F13.3°C 48% 5.8 mph SW9.3 kmh SW 10.4 mph16.7 kmh 30.20 in1022.7 mb - 0.00 in0.0 mm 0.00 in0.0 mm
01:30 PM 77.0°F25.0°C 56.9°F13.8°C 50% 5.8 mph S9.3 kmh S 10.4 mph16.7 kmh 30.20 in1022.7 mb - 0.00 in0.0 mm 0.00 in0.0 mm
01:35 PM 76.6°F24.8°C 57.1°F13.9°C 51% 5.8 mph SSW9.3 kmh SSW 8.1 mph13.0 kmh 30.19 in1022.4 mb - 0.00 in0.0 mm 0.00 in0.0 mm
01:40 PM 76.4°F24.7°C 56.9°F13.8°C 51% 5.8 mph S9.3 kmh S 8.1 mph13.0 kmh 30.19 in1022.4 mb - 0.00 in0.0 mm 0.00 in0.0 mm
01:45 PM 76.1°F24.5°C 56.7°F13.7°C 51% 5.8 mph SSW9.3 kmh SSW 12.7 mph20.4 kmh 30.19 in1022.4 mb - 0.00 in0.0 mm 0.00 in0.0 mm
01:50 PM 76.3°F24.6°C 56.8°F13.8°C 51% 5.8 mph S9.3 kmh S 10.4 mph16.7 kmh 30.19 in1022.4 mb - 0.00 in0.0 mm 0.00 in0.0 mm
01:55 PM 76.8°F24.9°C 57.3°F14.1°C 51% 5.8 mph SSW9.3 kmh SSW 10.4 mph16.7 kmh 30.19 in1022.4 mb - 0.00 in0.0 mm 0.00 in0.0 mm
02:00 PM 76.5°F24.7°C 57.1°F13.9°C 51% 4.6 mph SSW7.4 kmh SSW 6.9 mph11.1 kmh 30.19 in1022.4 mb - 0.00 in0.0 mm 0.00 in0.0 mm
02:10 PM 76.6°F24.8°C 57.1°F13.9°C 51% 5.8 mph SSW9.3 kmh SSW 9.2 mph14.8 kmh 30.18 in1022.0 mb - 0.00 in0.0 mm 0.00 in0.0 mm
02:15 PM 77.0°F25.0°C 57.0°F13.9°C 50% 5.8 mph SSW9.3 kmh SSW 11.5 mph18.5 kmh 30.18 in1022.0 mb - 0.00 in0.0 mm 0.00 in0.0 mm
02:20 PM 76.8°F24.9°C 57.9°F14.4°C 52% 3.5 mph S5.6 kmh S 9.2 mph14.8 kmh 30.18 in1022.0 mb - 0.00 in0.0 mm 0.00 in0.0 mm
02:25 PM 77.3°F25.2°C 57.8°F14.3°C 51% 4.6 mph S7.4 kmh S 6.9 mph11.1 kmh 30.18 in1022.0 mb - 0.00 in0.0 mm 0.00 in0.0 mm
02:30 PM 77.1°F25.1°C 57.6°F14.2°C 51% 8.1 mph S13.0 kmh S 10.4 mph16.7 kmh 30.18 in1022.0 mb - 0.00 in0.0 mm 0.00 in0.0 mm
02:35 PM 76.8°F24.9°C 57.8°F14.3°C 52% 6.9 mph SW11.1 kmh SW 11.5 mph18.5 kmh 30.17 in1021.7 mb - 0.00 in0.0 mm 0.00 in0.0 mm
02:40 PM 77.0°F25.0°C 57.5°F14.2°C 51% 5.8 mph SSW9.3 kmh SSW 10.4 mph16.7 kmh 30.17 in1021.7 mb - 0.00 in0.0 mm 0.00 in0.0 mm
02:45 PM 77.0°F25.0°C 57.5°F14.2°C 51% 4.6 mph S7.4 kmh S 10.4 mph16.7 kmh 30.17 in1021.7 mb - 0.00 in0.0 mm 0.00 in0.0 mm
02:50 PM 77.6°F25.3°C 58.0°F14.4°C 51% 3.5 mph SSW5.6 kmh SSW 8.1 mph13.0 kmh 30.17 in1021.7 mb - 0.00 in0.0 mm 0.00 in0.0 mm
02:55 PM 77.4°F25.2°C 56.8°F13.8°C 49% 6.9 mph SSW11.1 kmh SSW 10.4 mph16.7 kmh 30.17 in1021.7 mb - 0.00 in0.0 mm 0.00 in0.0 mm
03:00 PM 76.8°F24.9°C 56.8°F13.8°C 50% 6.9 mph S11.1 kmh S 12.7 mph20.4 kmh 30.16 in1021.3 mb - 0.00 in0.0 mm 0.00 in0.0 mm
03:10 PM 76.5°F24.7°C 55.3°F12.9°C 48% 5.8 mph S9.3 kmh S 11.5 mph18.5 kmh 30.16 in1021.3 mb - 0.00 in0.0 mm 0.00 in0.0 mm
03:15 PM 76.4°F24.7°C 55.8°F13.2°C 49% 5.8 mph S9.3 kmh S 10.4 mph16.7 kmh 30.16 in1021.3 mb - 0.00 in0.0 mm 0.00 in0.0 mm
03:20 PM 76.3°F24.6°C 55.2°F12.9°C 48% 2.3 mph SW3.7 kmh SW 5.8 mph9.3 kmh 30.16 in1021.3 mb - 0.00 in0.0 mm 0.00 in0.0 mm
03:25 PM 76.2°F24.6°C 55.1°F12.8°C 48% 4.6 mph SW7.4 kmh SW 6.9 mph11.1 kmh 30.15 in1021.0 mb - 0.00 in0.0 mm 0.00 in0.0 mm
03:30 PM 75.9°F24.4°C 54.8°F12.7°C 48% 4.6 mph S7.4 kmh S 9.2 mph14.8 kmh 30.15 in1021.0 mb - 0.00 in0.0 mm 0.00 in0.0 mm
03:35 PM 75.6°F24.2°C 54.0°F12.2°C 47% 6.9 mph S11.1 kmh S 13.8 mph22.2 kmh 30.15 in1021.0 mb - 0.00 in0.0 mm 0.00 in0.0 mm
03:40 PM 75.4°F24.1°C 53.7°F12.1°C 47% 6.9 mph S11.1 kmh S 16.1 mph25.9 kmh 30.15 in1021.0 mb - 0.00 in0.0 mm 0.00 in0.0 mm
03:45 PM 75.2°F24.0°C 54.2°F12.3°C 48% 3.5 mph SSW5.6 kmh SSW 8.1 mph13.0 kmh 30.15 in1021.0 mb - 0.00 in0.0 mm 0.00 in0.0 mm
03:50 PM 75.1°F23.9°C 53.5°F11.9°C 47% 6.9 mph SSW11.1 kmh SSW 11.5 mph18.5 kmh 30.14 in1020.7 mb - 0.00 in0.0 mm 0.00 in0.0 mm
03:55 PM 75.0°F23.9°C 53.4°F11.9°C 47% 4.6 mph SSW7.4 kmh SSW 4.6 mph7.4 kmh 30.14 in1020.7 mb - 0.00 in0.0 mm 0.00 in0.0 mm
04:00 PM 75.0°F23.9°C 53.4°F11.9°C 47% 5.8 mph SSW9.3 kmh SSW 11.5 mph18.5 kmh 30.14 in1020.7 mb - 0.00 in0.0 mm 0.00 in0.0 mm
04:10 PM 74.7°F23.7°C 53.1°F11.7°C 47% 4.6 mph S7.4 kmh S 5.8 mph9.3 kmh 30.14 in1020.7 mb - 0.00 in0.0 mm 0.00 in0.0 mm
04:15 PM 74.6°F23.7°C 52.4°F11.3°C 46% 4.6 mph SSW7.4 kmh SSW 6.9 mph11.1 kmh 30.14 in1020.7 mb - 0.00 in0.0 mm 0.00 in0.0 mm
04:20 PM 74.4°F23.6°C 52.3°F11.3°C 46% 5.8 mph SSW9.3 kmh SSW 6.9 mph11.1 kmh 30.14 in1020.7 mb - 0.00 in0.0 mm 0.00 in0.0 mm
04:25 PM 74.3°F23.5°C 51.5°F10.8°C 45% 6.9 mph SSW11.1 kmh SSW 11.5 mph18.5 kmh 30.14 in1020.7 mb - 0.00 in0.0 mm 0.00 in0.0 mm
04:30 PM 74.0°F23.3°C 51.9°F11.1°C 46% 4.6 mph SSW7.4 kmh SSW 11.5 mph18.5 kmh 30.14 in1020.7 mb - 0.00 in0.0 mm 0.00 in0.0 mm
04:35 PM 73.8°F23.2°C 51.1°F10.6°C 45% 4.6 mph SSW7.4 kmh SSW 6.9 mph11.1 kmh 30.13 in1020.3 mb - 0.00 in0.0 mm 0.00 in0.0 mm
04:40 PM 73.6°F23.1°C 50.9°F10.5°C 45% 4.6 mph SW7.4 kmh SW 5.8 mph9.3 kmh 30.13 in1020.3 mb - 0.00 in0.0 mm 0.00 in0.0 mm
04:45 PM 73.4°F23.0°C 51.4°F10.8°C 46% 4.6 mph SW7.4 kmh SW 6.9 mph11.1 kmh 30.13 in1020.3 mb - 0.00 in0.0 mm 0.00 in0.0 mm
04:50 PM 73.2°F22.9°C 51.8°F11.0°C 47% 5.8 mph SW9.3 kmh SW 11.5 mph18.5 kmh 30.13 in1020.3 mb - 0.00 in0.0 mm 0.00 in0.0 mm
04:55 PM 72.9°F22.7°C 52.1°F11.2°C 48% 3.5 mph SW5.6 kmh SW 8.1 mph13.0 kmh 30.13 in1020.3 mb - 0.00 in0.0 mm 0.00 in0.0 mm
05:00 PM 72.7°F22.6°C 52.4°F11.3°C 49% 4.6 mph SSW7.4 kmh SSW 9.2 mph14.8 kmh 30.13 in1020.3 mb - 0.00 in0.0 mm 0.00 in0.0 mm
05:10 PM 72.2°F22.3°C 52.5°F11.4°C 50% 3.5 mph SSW5.6 kmh SSW 5.8 mph9.3 kmh 30.13 in1020.3 mb - 0.00 in0.0 mm 0.00 in0.0 mm
05:15 PM 71.9°F22.2°C 52.8°F11.6°C 51% 3.5 mph SW5.6 kmh SW 8.1 mph13.0 kmh 30.12 in1020.0 mb - 0.00 in0.0 mm 0.00 in0.0 mm
05:20 PM 71.6°F22.0°C 53.1°F11.7°C 52% 3.5 mph SSW5.6 kmh SSW 4.6 mph7.4 kmh 30.12 in1020.0 mb - 0.00 in0.0 mm 0.00 in0.0 mm
05:25 PM 71.4°F21.9°C 52.9°F11.6°C 52% 4.6 mph SSW7.4 kmh SSW 9.2 mph14.8 kmh 30.12 in1020.0 mb - 0.00 in0.0 mm 0.00 in0.0 mm
05:30 PM 71.1°F21.7°C 53.1°F11.7°C 53% 4.6 mph SSW7.4 kmh SSW 6.9 mph11.1 kmh 30.12 in1020.0 mb - 0.00 in0.0 mm 0.00 in0.0 mm
05:35 PM 70.9°F21.6°C 53.4°F11.9°C 54% 5.8 mph SSW9.3 kmh SSW 8.1 mph13.0 kmh 30.12 in1020.0 mb - 0.00 in0.0 mm 0.00 in0.0 mm
05:40 PM 70.7°F21.5°C 53.7°F12.1°C 55% 4.6 mph SW7.4 kmh SW 9.2 mph14.8 kmh 30.12 in1020.0 mb - 0.00 in0.0 mm 0.00 in0.0 mm
05:45 PM 70.4°F21.3°C 53.5°F11.9°C 55% 4.6 mph SSW7.4 kmh SSW 6.9 mph11.1 kmh 30.12 in1020.0 mb - 0.00 in0.0 mm 0.00 in0.0 mm
05:50 PM 70.2°F21.2°C 53.3°F11.8°C 55% 4.6 mph SW7.4 kmh SW 5.8 mph9.3 kmh 30.12 in1020.0 mb - 0.00 in0.0 mm 0.00 in0.0 mm
05:55 PM 70.0°F21.1°C 53.6°F12.0°C 56% 2.3 mph SW3.7 kmh SW 5.8 mph9.3 kmh 30.12 in1020.0 mb - 0.00 in0.0 mm 0.00 in0.0 mm
06:00 PM 69.6°F20.9°C 53.2°F11.8°C 56% 3.5 mph SW5.6 kmh SW 4.6 mph7.4 kmh 30.12 in1020.0 mb - 0.00 in0.0 mm 0.00 in0.0 mm
06:10 PM 69.0°F20.6°C 53.1°F11.7°C 57% 3.5 mph SW5.6 kmh SW 5.8 mph9.3 kmh 30.12 in1020.0 mb - 0.00 in0.0 mm 0.00 in0.0 mm
06:15 PM 68.8°F20.4°C 52.9°F11.6°C 57% 3.5 mph SW5.6 kmh SW 8.1 mph13.0 kmh 30.12 in1020.0 mb - 0.00 in0.0 mm 0.00 in0.0 mm
06:20 PM 68.7°F20.4°C 52.8°F11.6°C 57% 1.2 mph SW1.9 kmh SW 6.9 mph11.1 kmh 30.12 in1020.0 mb - 0.00 in0.0 mm 0.00 in0.0 mm
06:25 PM 68.6°F20.3°C 52.8°F11.6°C 57% 2.3 mph SW3.7 kmh SW 5.8 mph9.3 kmh 30.12 in1020.0 mb - 0.00 in0.0 mm 0.00 in0.0 mm
06:30 PM 68.6°F20.3°C 52.2°F11.2°C 56% 1.2 mph SW1.9 kmh SW 3.5 mph5.6 kmh 30.12 in1020.0 mb - 0.00 in0.0 mm 0.00 in0.0 mm
06:35 PM 68.3°F20.2°C 52.5°F11.4°C 57% 1.2 mph SW1.9 kmh SW 3.5 mph5.6 kmh 30.12 in1020.0 mb - 0.00 in0.0 mm 0.00 in0.0 mm
06:40 PM 68.0°F20.0°C 52.2°F11.2°C 57% 2.3 mph WSW3.7 kmh WSW 3.5 mph5.6 kmh 30.12 in1020.0 mb - 0.00 in0.0 mm 0.00 in0.0 mm
06:45 PM 67.5°F19.7°C 52.2°F11.2°C 58% 3.5 mph SW5.6 kmh SW 5.8 mph9.3 kmh 30.12 in1020.0 mb - 0.00 in0.0 mm 0.00 in0.0 mm
06:50 PM 67.2°F19.6°C 51.9°F11.1°C 58% 3.5 mph SSW5.6 kmh SSW 6.9 mph11.1 kmh 30.11 in1019.6 mb - 0.00 in0.0 mm 0.00 in0.0 mm
06:55 PM 67.3°F19.6°C 51.5°F10.8°C 57% 5.8 mph SW9.3 kmh SW 9.2 mph14.8 kmh 30.12 in1020.0 mb - 0.00 in0.0 mm 0.00 in0.0 mm
07:00 PM 67.5°F19.7°C 51.3°F10.7°C 56% 5.8 mph SSW9.3 kmh SSW 8.1 mph13.0 kmh 30.12 in1020.0 mb - 0.00 in0.0 mm 0.00 in0.0 mm
07:10 PM 68.0°F20.0°C 51.2°F10.7°C 55% 4.6 mph SSW7.4 kmh SSW 5.8 mph9.3 kmh 30.12 in1020.0 mb - 0.00 in0.0 mm 0.00 in0.0 mm
07:15 PM 68.0°F20.0°C 51.2°F10.7°C 55% 3.5 mph SSW5.6 kmh SSW 8.1 mph13.0 kmh 30.12 in1020.0 mb - 0.00 in0.0 mm 0.00 in0.0 mm
07:20 PM 67.8°F19.9°C 51.0°F10.6°C 55% 4.6 mph SW7.4 kmh SW 5.8 mph9.3 kmh 30.12 in1020.0 mb - 0.00 in0.0 mm 0.00 in0.0 mm
07:25 PM 67.6°F19.8°C 51.4°F10.8°C 56% 2.3 mph S3.7 kmh S 8.1 mph13.0 kmh 30.11 in1019.6 mb - 0.00 in0.0 mm 0.00 in0.0 mm
07:30 PM 67.4°F19.7°C 51.1°F10.6°C 56% 3.5 mph SSW5.6 kmh SSW 5.8 mph9.3 kmh 30.11 in1019.6 mb - 0.00 in0.0 mm 0.00 in0.0 mm
07:35 PM 67.1°F19.5°C 51.3°F10.7°C 57% 4.6 mph SSW7.4 kmh SSW 8.1 mph13.0 kmh 30.11 in1019.6 mb - 0.00 in0.0 mm 0.00 in0.0 mm
07:40 PM 66.9°F19.4°C 51.2°F10.7°C 57% 4.6 mph S7.4 kmh S 10.4 mph16.7 kmh 30.11 in1019.6 mb - 0.00 in0.0 mm 0.00 in0.0 mm
07:45 PM 66.8°F19.3°C 51.1°F10.6°C 57% 3.5 mph SW5.6 kmh SW 8.1 mph13.0 kmh 30.11 in1019.6 mb - 0.00 in0.0 mm 0.00 in0.0 mm
07:50 PM 66.5°F19.2°C 51.3°F10.7°C 58% 3.5 mph SSW5.6 kmh SSW 5.8 mph9.3 kmh 30.11 in1019.6 mb - 0.00 in0.0 mm 0.00 in0.0 mm
07:55 PM 66.3°F19.1°C 51.1°F10.6°C 58% 5.8 mph SSW9.3 kmh SSW 8.1 mph13.0 kmh 30.11 in1019.6 mb - 0.00 in0.0 mm 0.00 in0.0 mm
08:00 PM 66.2°F19.0°C 51.4°F10.8°C 59% 4.6 mph SSW7.4 kmh SSW 8.1 mph13.0 kmh 30.11 in1019.6 mb - 0.00 in0.0 mm 0.00 in0.0 mm
08:10 PM 65.8°F18.8°C 51.1°F10.6°C 59% 3.5 mph SSW5.6 kmh SSW 8.1 mph13.0 kmh 30.11 in1019.6 mb - 0.00 in0.0 mm 0.00 in0.0 mm
08:15 PM 65.6°F18.7°C 51.3°F10.7°C 60% 3.5 mph SSW5.6 kmh SSW 4.6 mph7.4 kmh 30.11 in1019.6 mb - 0.00 in0.0 mm 0.00 in0.0 mm
08:20 PM 65.4°F18.6°C 51.2°F10.7°C 60% 3.5 mph SSW5.6 kmh SSW 5.8 mph9.3 kmh 30.11 in1019.6 mb - 0.00 in0.0 mm 0.00 in0.0 mm
08:25 PM 65.2°F18.4°C 51.4°F10.8°C 61% 2.3 mph SW3.7 kmh SW 4.6 mph7.4 kmh 30.11 in1019.6 mb - 0.00 in0.0 mm 0.00 in0.0 mm
08:30 PM 65.1°F18.4°C 51.3°F10.7°C 61% 1.2 mph SW1.9 kmh SW 2.3 mph3.7 kmh 30.11 in1019.6 mb - 0.00 in0.0 mm 0.00 in0.0 mm
08:35 PM 65.0°F18.3°C 51.7°F10.9°C 62% 3.5 mph SW5.6 kmh SW 4.6 mph7.4 kmh 30.11 in1019.6 mb - 0.00 in0.0 mm 0.00 in0.0 mm
08:40 PM 65.1°F18.4°C 51.8°F11.0°C 62% 3.5 mph SW5.6 kmh SW 5.8 mph9.3 kmh 30.11 in1019.6 mb - 0.00 in0.0 mm 0.00 in0.0 mm
08:45 PM 65.3°F18.5°C 52.0°F11.1°C 62% 3.5 mph SW5.6 kmh SW 6.9 mph11.1 kmh 30.10 in1019.3 mb - 0.00 in0.0 mm 0.00 in0.0 mm
08:50 PM 65.7°F18.7°C 52.3°F11.3°C 62% 4.6 mph SW7.4 kmh SW 8.1 mph13.0 kmh 30.10 in1019.3 mb - 0.00 in0.0 mm 0.00 in0.0 mm
08:55 PM 65.9°F18.8°C 52.5°F11.4°C 62% 3.5 mph SSW5.6 kmh SSW 6.9 mph11.1 kmh 30.10 in1019.3 mb - 0.00 in0.0 mm 0.00 in0.0 mm
09:00 PM 65.9°F18.8°C 52.5°F11.4°C 62% 3.5 mph SW5.6 kmh SW 4.6 mph7.4 kmh 30.10 in1019.3 mb - 0.00 in0.0 mm 0.00 in0.0 mm
09:10 PM 65.7°F18.7°C 52.8°F11.6°C 63% 3.5 mph SW5.6 kmh SW 4.6 mph7.4 kmh 30.10 in1019.3 mb - 0.00 in0.0 mm 0.00 in0.0 mm
09:15 PM 65.5°F18.6°C 52.6°F11.4°C 63% 4.6 mph SW7.4 kmh SW 8.1 mph13.0 kmh 30.10 in1019.3 mb - 0.00 in0.0 mm 0.00 in0.0 mm
09:20 PM 65.7°F18.7°C 52.7°F11.5°C 63% 4.6 mph SW7.4 kmh SW 8.1 mph13.0 kmh 30.10 in1019.3 mb - 0.00 in0.0 mm 0.00 in0.0 mm
09:25 PM 65.7°F18.7°C 53.2°F11.8°C 64% 3.5 mph SW5.6 kmh SW 5.8 mph9.3 kmh 30.10 in1019.3 mb - 0.00 in0.0 mm 0.00 in0.0 mm
09:30 PM 65.5°F18.6°C 53.0°F11.7°C 64% 3.5 mph SW5.6 kmh SW 5.8 mph9.3 kmh 30.10 in1019.3 mb - 0.00 in0.0 mm 0.00 in0.0 mm
09:35 PM 65.3°F18.5°C 53.2°F11.8°C 65% 2.3 mph SW3.7 kmh SW 3.5 mph5.6 kmh 30.09 in1019.0 mb - 0.00 in0.0 mm 0.00 in0.0 mm
09:40 PM 65.0°F18.3°C 52.9°F11.6°C 65% 1.2 mph WSW1.9 kmh WSW 3.5 mph5.6 kmh 30.09 in1019.0 mb - 0.00 in0.0 mm 0.00 in0.0 mm
09:45 PM 64.8°F18.2°C 53.1°F11.7°C 66% Calm Calm 4.6 mph7.4 kmh 30.09 in1019.0 mb - 0.00 in0.0 mm 0.00 in0.0 mm
09:50 PM 64.5°F18.1°C 52.9°F11.6°C 66% 2.3 mph SW3.7 kmh SW 3.5 mph5.6 kmh 30.09 in1019.0 mb - 0.00 in0.0 mm 0.00 in0.0 mm
09:55 PM 64.4°F18.0°C 52.8°F11.6°C 66% 2.3 mph SW3.7 kmh SW 4.6 mph7.4 kmh 30.09 in1019.0 mb - 0.00 in0.0 mm 0.00 in0.0 mm
10:00 PM 64.6°F18.1°C 52.5°F11.4°C 65% 3.5 mph SW5.6 kmh SW 6.9 mph11.1 kmh 30.09 in1019.0 mb - 0.00 in0.0 mm 0.00 in0.0 mm
10:10 PM 64.8°F18.2°C 52.4°F11.3°C 64% 3.5 mph SW5.6 kmh SW 6.9 mph11.1 kmh 30.09 in1019.0 mb - 0.00 in0.0 mm 0.00 in0.0 mm
10:15 PM 64.9°F18.3°C 52.4°F11.3°C 64% 2.3 mph SW3.7 kmh SW 4.6 mph7.4 kmh 30.09 in1019.0 mb - 0.00 in0.0 mm 0.00 in0.0 mm
10:20 PM 64.8°F18.2°C 52.3°F11.3°C 64% 2.3 mph SSW3.7 kmh SSW 3.5 mph5.6 kmh 30.09 in1019.0 mb - 0.00 in0.0 mm 0.00 in0.0 mm
10:25 PM 64.5°F18.1°C 52.0°F11.1°C 64% 1.2 mph SW1.9 kmh SW 3.5 mph5.6 kmh 30.09 in1019.0 mb - 0.00 in0.0 mm 0.00 in0.0 mm
10:30 PM 64.2°F17.9°C 52.2°F11.2°C 65% Calm Calm 2.3 mph3.7 kmh 30.09 in1019.0 mb - 0.00 in0.0 mm 0.00 in0.0 mm
10:35 PM 63.9°F17.7°C 51.9°F11.1°C 65% Calm Calm -- 30.09 in1019.0 mb - 0.00 in0.0 mm 0.00 in0.0 mm
10:40 PM 63.5°F17.5°C 52.0°F11.1°C 66% 1.2 mph S1.9 kmh S 3.5 mph5.6 kmh 30.09 in1019.0 mb - 0.00 in0.0 mm 0.00 in0.0 mm
10:45 PM 63.2°F17.3°C 52.0°F11.1°C 67% 3.5 mph S5.6 kmh S 5.8 mph9.3 kmh 30.09 in1019.0 mb - 0.00 in0.0 mm 0.00 in0.0 mm
10:50 PM 62.8°F17.1°C 52.1°F11.2°C 68% 4.6 mph SSW7.4 kmh SSW 5.8 mph9.3 kmh 30.09 in1019.0 mb - 0.00 in0.0 mm 0.00 in0.0 mm
10:55 PM 62.7°F17.1°C 52.4°F11.3°C 69% 4.6 mph SW7.4 kmh SW 5.8 mph9.3 kmh 30.09 in1019.0 mb - 0.00 in0.0 mm 0.00 in0.0 mm
11:00 PM 62.8°F17.1°C 52.8°F11.6°C 70% 4.6 mph SW7.4 kmh SW 6.9 mph11.1 kmh 30.09 in1019.0 mb - 0.00 in0.0 mm 0.00 in0.0 mm
11:10 PM 63.6°F17.6°C 53.2°F11.8°C 69% 4.6 mph SW7.4 kmh SW 11.5 mph18.5 kmh 30.09 in1019.0 mb - 0.00 in0.0 mm 0.00 in0.0 mm
11:15 PM 63.9°F17.7°C 53.1°F11.7°C 68% 4.6 mph SW7.4 kmh SW 6.9 mph11.1 kmh 30.09 in1019.0 mb - 0.00 in0.0 mm 0.00 in0.0 mm
11:20 PM 64.1°F17.8°C 53.3°F11.8°C 68% 3.5 mph SW5.6 kmh SW 6.9 mph11.1 kmh 30.09 in1019.0 mb - 0.00 in0.0 mm 0.00 in0.0 mm
11:25 PM 64.2°F17.9°C 53.0°F11.7°C 67% 3.5 mph SW5.6 kmh SW 8.1 mph13.0 kmh 30.09 in1019.0 mb - 0.00 in0.0 mm 0.00 in0.0 mm
11:30 PM 64.2°F17.9°C 53.0°F11.7°C 67% 3.5 mph SW5.6 kmh SW 5.8 mph9.3 kmh 30.09 in1019.0 mb - 0.00 in0.0 mm 0.00 in0.0 mm
11:35 PM 64.1°F17.8°C 52.9°F11.6°C 67% 3.5 mph SW5.6 kmh SW 4.6 mph7.4 kmh 30.09 in1019.0 mb - 0.00 in0.0 mm 0.00 in0.0 mm
11:40 PM 63.9°F17.7°C 52.8°F11.6°C 67% 1.2 mph SW1.9 kmh SW 3.5 mph5.6 kmh 30.09 in1019.0 mb - 0.00 in0.0 mm 0.00 in0.0 mm
11:45 PM 63.6°F17.6°C 52.9°F11.6°C 68% Calm Calm -- 30.09 in1019.0 mb - 0.00 in0.0 mm 0.00 in0.0 mm
11:50 PM 63.0°F17.2°C 52.7°F11.5°C 69% Calm Calm -- 30.09 in1019.0 mb - 0.00 in0.0 mm 0.00 in0.0 mm
11:55 PM 62.4°F16.9°C 52.5°F11.4°C 70% Calm Calm -- 30.08 in1018.6 mb - 0.00 in0.0 mm 0.00 in0.0 mm